Time;durP1;ratioP1;P1;durP2;ratioP2;P2;SDS_P1;SDS_P2;PMS_P1;PMS_P2;Temp;Humidity;BMP_temperature;BMP_pressure;BME280_temperature;BME280_humidity;BME280_pressure;Samples;Min_cycle;Max_cycle;Signal;HPM_P1;HPM_P2
2024/04/19 00:01:10;;;;;;;12.70;5.60;;;9.40;86.50;;;;;;5395799;26;20003;-81
2024/04/19 00:03:35;;;;;;;12.50;5.32;;;9.20;86.50;;;;;;5396847;26;20018;-82
2024/04/19 00:06:01;;;;;;;13.60;5.75;;;9.30;86.70;;;;;;5407730;26;20014;-83
2024/04/19 00:08:27;;;;;;;11.18;5.20;;;9.20;86.70;;;;;;5365350;26;20000;-83
2024/04/19 00:10:54;;;;;;;14.80;5.70;;;9.20;87.10;;;;;;5355803;26;20942;-82
2024/04/19 00:13:25;;;;;;;10.98;5.00;;;9.20;87.30;;;;;;5365557;26;20003;-82
2024/04/19 00:15:51;;;;;;;10.70;4.03;;;9.20;87.70;;;;;;5356792;26;20059;-82
2024/04/19 00:18:17;;;;;;;9.55;4.53;;;9.20;87.70;;;;;;5396202;26;19999;-81
2024/04/19 00:20:42;;;;;;;10.30;4.03;;;9.10;88.00;;;;;;5392606;26;20787;-80
2024/04/19 00:23:08;;;;;;;10.93;4.28;;;9.10;87.70;;;;;;5364623;26;20805;-80
2024/04/19 00:25:36;;;;;;;11.18;4.65;;;9.00;87.90;;;;;;5365724;26;20018;-84
2024/04/19 00:28:02;;;;;;;9.57;4.18;;;8.90;88.00;;;;;;5389954;26;20028;-80
2024/04/19 00:30:28;;;;;;;8.20;3.60;;;8.90;87.90;;;;;;5396427;26;20608;-84
2024/04/19 00:32:54;;;;;;;12.57;3.92;;;8.70;88.20;;;;;;5395994;26;20007;-81
2024/04/19 00:35:20;;;;;;;9.80;3.60;;;8.80;88.10;;;;;;5403574;26;20380;-80
2024/04/19 00:37:45;;;;;;;10.88;3.85;;;8.80;88.30;;;;;;5367385;26;19995;-81
2024/04/19 00:40:11;;;;;;;8.13;3.33;;;8.70;88.00;;;;;;5357125;26;20009;-80
2024/04/19 00:42:37;;;;;;;8.80;3.92;;;8.70;88.40;;;;;;5395751;26;20313;-82
2024/04/19 00:45:28;;;;;;;8.13;3.28;;;8.60;88.20;;;;;;5393832;26;19999;-82
2024/04/19 00:47:55;;;;;;;8.05;3.90;;;8.60;88.40;;;;;;5396483;26;20707;-82
2024/04/19 00:50:21;;;;;;;9.80;3.55;;;8.60;88.50;;;;;;5394142;26;20007;-81
2024/04/19 00:52:47;;;;;;;8.93;3.85;;;8.60;88.20;;;;;;5389998;26;20015;-83
2024/04/19 00:55:12;;;;;;;9.98;3.50;;;8.60;88.10;;;;;;5396048;26;20440;-83
2024/04/19 00:57:38;;;;;;;9.88;4.07;;;8.60;88.40;;;;;;5389407;26;20496;-82
2024/04/19 01:00:05;;;;;;;9.07;3.22;;;8.60;88.40;;;;;;5368419;26;20484;-83
2024/04/19 01:02:31;;;;;;;8.65;3.58;;;8.70;88.20;;;;;;5364084;26;20402;-83
2024/04/19 01:04:57;;;;;;;9.20;4.13;;;8.70;88.00;;;;;;5395912;26;19995;-83
2024/04/19 01:07:24;;;;;;;8.55;3.33;;;8.70;88.00;;;;;;5364989;26;20044;-82
2024/04/19 01:09:50;;;;;;;9.38;4.10;;;8.70;88.10;;;;;;5401081;26;20310;-82
2024/04/19 01:12:16;;;;;;;9.63;4.00;;;8.80;88.20;;;;;;5354643;26;20000;-83
2024/04/19 01:14:41;;;;;;;11.02;4.32;;;8.70;88.40;;;;;;5392250;26;19996;-84
2024/04/19 01:17:07;;;;;;;10.43;4.70;;;8.80;88.40;;;;;;5357264;26;20007;-82
2024/04/19 01:19:33;;;;;;;9.52;4.15;;;8.80;88.60;;;;;;5392849;26;19991;-82
2024/04/19 01:21:58;;;;;;;11.35;4.70;;;8.80;88.60;;;;;;5393641;26;20010;-82
2024/04/19 01:24:51;;;;;;;9.40;4.18;;;8.80;88.70;;;;;;5398278;26;20018;-83
2024/04/19 01:27:19;;;;;;;9.57;4.72;;;8.80;88.90;;;;;;5388336;26;19996;-81
2024/04/19 01:29:45;;;;;;;9.07;4.85;;;8.70;88.90;;;;;;5393391;26;20114;-83
2024/04/19 01:32:11;;;;;;;11.95;5.10;;;8.70;89.10;;;;;;5359760;26;20398;-84
2024/04/19 01:34:36;;;;;;;11.20;5.28;;;8.80;88.90;;;;;;5398495;26;20055;-84
2024/04/19 01:37:03;;;;;;;10.60;4.70;;;8.70;89.00;;;;;;5348960;26;20023;-83
2024/04/19 01:39:28;;;;;;;13.55;5.95;;;8.60;89.00;;;;;;5365021;26;20000;-81
2024/04/19 01:41:54;;;;;;;14.82;4.60;;;8.70;89.40;;;;;;5358678;26;21211;-82
2024/04/19 01:44:20;;;;;;;10.70;4.60;;;8.70;89.50;;;;;;5404434;26;20076;-82
2024/04/19 01:46:45;;;;;;;13.95;4.82;;;8.70;89.70;;;;;;5394798;26;20019;-82
2024/04/19 01:49:11;;;;;;;11.43;4.78;;;8.70;89.70;;;;;;5395423;26;19996;-82
2024/04/19 01:51:36;;;;;;;11.35;4.80;;;8.70;89.60;;;;;;5390485;26;19990;-81
2024/04/19 01:54:02;;;;;;;10.25;5.13;;;8.70;89.40;;;;;;5406096;26;20010;-82
2024/04/19 01:56:28;;;;;;;13.85;5.45;;;8.70;89.80;;;;;;5400865;26;20404;-81
2024/04/19 01:58:54;;;;;;;8.88;4.85;;;8.70;89.80;;;;;;5368276;26;20414;-83
2024/04/19 02:01:21;;;;;;;12.02;4.82;;;8.60;89.60;;;;;;5391114;26;19999;-82
2024/04/19 02:03:46;;;;;;;9.82;4.53;;;8.60;89.50;;;;;;5363530;26;20093;-84
2024/04/19 02:06:14;;;;;;;9.80;4.50;;;8.60;89.50;;;;;;5370768;26;20000;-82
2024/04/19 02:08:39;;;;;;;10.20;4.13;;;8.70;89.30;;;;;;5372977;26;20073;-80
2024/04/19 02:11:05;;;;;;;17.55;5.15;;;8.70;89.20;;;;;;5402666;26;20015;-80
2024/04/19 02:13:31;;;;;;;10.18;4.10;;;8.70;89.40;;;;;;5393424;26;19996;-82
2024/04/19 02:16:00;;;;;;;12.65;4.35;;;8.60;89.50;;;;;;5395465;26;20735;-79
2024/04/19 02:18:26;;;;;;;9.45;3.70;;;8.60;89.40;;;;;;5394874;26;20022;-81
2024/04/19 02:20:52;;;;;;;10.85;3.88;;;8.60;89.30;;;;;;5340589;26;20437;-81
2024/04/19 02:23:36;;;;;;;8.30;3.95;;;8.60;89.60;;;;;;5392541;26;20018;-81
2024/04/19 02:26:02;;;;;;;10.70;4.20;;;8.60;89.70;;;;;;5395185;26;20007;-80
2024/04/19 02:31:12;;;;;;;6.68;3.15;;;8.50;90.00;;;;;;5391730;26;20010;-79
2024/04/19 02:33:38;;;;;;;10.45;4.05;;;8.50;90.30;;;;;;5356724;26;20336;-80
2024/04/19 02:36:05;;;;;;;9.20;4.32;;;8.50;90.40;;;;;;5395342;26;19995;-81
2024/04/19 02:38:30;;;;;;;14.88;5.03;;;8.60;90.70;;;;;;5371134;26;20707;-80
2024/04/19 02:40:56;;;;;;;8.40;4.15;;;8.50;90.90;;;;;;5367259;26;20010;-80
2024/04/19 02:43:22;;;;;;;11.18;4.78;;;8.50;91.00;;;;;;5401860;26;20077;-80
2024/04/19 02:45:47;;;;;;;13.98;4.65;;;8.40;91.20;;;;;;5398395;26;20054;-79
2024/04/19 02:48:13;;;;;;;7.68;3.97;;;8.40;91.50;;;;;;5392995;26;20076;-81
2024/04/19 02:50:39;;;;;;;8.80;4.47;;;8.40;91.80;;;;;;5395582;26;20006;-80
2024/04/19 02:53:04;;;;;;;12.85;4.95;;;8.40;91.90;;;;;;5358984;26;20000;-80
2024/04/19 02:55:30;;;;;;;9.52;4.28;;;8.40;92.20;;;;;;5394780;26;20065;-80
2024/04/19 02:57:55;;;;;;;10.32;4.32;;;8.30;92.40;;;;;;5388722;26;20071;-80
2024/04/19 03:00:21;;;;;;;12.48;4.57;;;8.30;92.30;;;;;;5392240;26;19991;-79
2024/04/19 03:02:47;;;;;;;11.25;4.55;;;8.40;92.70;;;;;;5394257;26;20035;-80
2024/04/19 03:05:13;;;;;;;11.70;4.43;;;8.40;92.70;;;;;;5353000;26;21545;-82
2024/04/19 03:07:38;;;;;;;13.45;5.50;;;8.40;92.70;;;;;;5403751;26;19999;-81
2024/04/19 03:10:04;;;;;;;11.20;5.45;;;8.40;92.80;;;;;;5391744;26;19991;-80
2024/04/19 03:12:30;;;;;;;12.90;5.10;;;8.40;93.00;;;;;;5396097;26;20000;-80
2024/04/19 03:14:56;;;;;;;14.43;6.55;;;8.50;93.20;;;;;;5390092;26;20006;-81
2024/04/19 03:17:22;;;;;;;13.27;5.93;;;8.40;93.40;;;;;;5387248;26;19995;-81
2024/04/19 03:19:47;;;;;;;11.77;6.25;;;8.40;93.60;;;;;;5363164;26;19996;-81
2024/04/19 03:22:14;;;;;;;12.45;7.10;;;8.50;93.90;;;;;;5369150;26;20798;-80
2024/04/19 03:24:40;;;;;;;12.68;7.32;;;8.40;93.90;;;;;;5395141;26;19991;-80
2024/04/19 03:27:05;;;;;;;11.35;6.63;;;8.50;94.10;;;;;;5390691;26;20043;-82
2024/04/19 03:29:31;;;;;;;11.57;7.32;;;8.50;94.20;;;;;;5392853;26;20399;-80
2024/04/19 03:31:56;;;;;;;14.68;6.95;;;8.50;94.30;;;;;;5361754;26;20004;-81
2024/04/19 03:34:24;;;;;;;10.45;6.93;;;8.60;94.30;;;;;;5392812;26;20011;-81
2024/04/19 03:36:50;;;;;;;13.23;7.18;;;8.60;94.40;;;;;;5393518;26;20083;-81
2024/04/19 03:39:16;;;;;;;11.55;7.93;;;8.50;94.50;;;;;;5381517;26;20913;-82
2024/04/19 03:41:43;;;;;;;14.45;7.75;;;8.50;94.70;;;;;;5385936;26;20011;-79
2024/04/19 03:46:53;;;;;;;14.43;9.55;;;8.60;95.00;;;;;;5392704;26;20014;-80
2024/04/19 03:49:19;;;;;;;15.35;10.85;;;8.50;95.00;;;;;;5395844;26;20000;-80
2024/04/19 03:51:45;;;;;;;12.38;10.55;;;8.60;95.30;;;;;;5374788;26;20004;-83
2024/04/19 03:54:10;;;;;;;14.75;10.80;;;8.50;95.30;;;;;;5388638;26;20030;-78
2024/04/19 03:56:36;;;;;;;15.68;11.18;;;8.60;95.40;;;;;;5398082;26;20920;-80
2024/04/19 03:59:02;;;;;;;13.43;10.05;;;8.60;95.30;;;;;;5392937;26;20014;-79
2024/04/19 04:01:27;;;;;;;15.32;10.77;;;8.70;95.40;;;;;;5390005;26;20003;-78
2024/04/19 04:03:53;;;;;;;15.32;10.82;;;8.70;95.40;;;;;;5393480;26;20085;-81
2024/04/19 04:06:19;;;;;;;14.60;10.82;;;8.70;95.40;;;;;;5391574;26;20011;-80
2024/04/19 04:08:48;;;;;;;16.30;10.70;;;8.70;95.60;;;;;;5392960;26;20000;-79
2024/04/19 04:11:14;;;;;;;15.13;11.52;;;8.70;95.70;;;;;;5391679;26;20020;-79
2024/04/19 04:13:40;;;;;;;18.75;12.13;;;8.70;95.70;;;;;;5386773;26;20477;-79
2024/04/19 04:16:06;;;;;;;18.67;13.48;;;8.70;95.70;;;;;;5362374;26;20066;-80
2024/04/19 04:18:34;;;;;;;20.42;14.05;;;8.70;95.70;;;;;;5394886;26;19991;-80
2024/04/19 04:21:00;;;;;;;19.92;13.85;;;8.80;95.80;;;;;;5349619;26;20108;-79
2024/04/19 04:23:27;;;;;;;19.98;14.88;;;8.90;95.80;;;;;;5358342;26;20119;-79
2024/04/19 04:25:52;;;;;;;22.42;14.30;;;8.80;95.70;;;;;;5335265;26;20738;-81
2024/04/19 04:28:18;;;;;;;21.27;15.10;;;8.70;95.80;;;;;;5334500;26;20012;-80
2024/04/19 04:30:43;;;;;;;22.83;13.82;;;8.80;95.80;;;;;;5351624;26;20035;-80
2024/04/19 04:33:09;;;;;;;24.13;15.10;;;8.90;95.90;;;;;;5337365;26;20448;-81
2024/04/19 04:35:37;;;;;;;24.42;13.27;;;8.90;95.70;;;;;;5354822;26;20004;-81
2024/04/19 04:38:03;;;;;;;20.23;13.93;;;9.00;95.70;;;;;;5340323;26;20004;-81
2024/04/19 04:40:31;;;;;;;23.58;13.57;;;8.90;95.60;;;;;;5346098;26;19997;-80
2024/04/19 04:43:00;;;;;;;21.13;12.85;;;8.90;95.70;;;;;;5356237;26;19996;-81
2024/04/19 04:45:28;;;;;;;23.17;13.75;;;9.00;95.60;;;;;;5334514;26;20903;-82
2024/04/19 04:47:54;;;;;;;21.67;15.38;;;9.00;95.50;;;;;;5364931;26;20001;-80
2024/04/19 04:50:20;;;;;;;24.50;16.20;;;9.00;95.40;;;;;;5356716;26;20019;-81
2024/04/19 04:52:46;;;;;;;24.17;16.05;;;9.00;95.50;;;;;;5363101;26;20004;-81
2024/04/19 04:55:15;;;;;;;24.65;16.80;;;9.10;95.50;;;;;;5350387;26;20441;-82
2024/04/19 04:57:41;;;;;;;27.27;17.08;;;9.10;95.40;;;;;;5337728;26;20407;-80
2024/04/19 05:00:10;;;;;;;25.52;18.23;;;9.10;95.40;;;;;;5354762;26;20337;-81
2024/04/19 05:02:36;;;;;;;22.67;17.38;;;9.10;95.30;;;;;;5338466;26;20440;-83
2024/04/19 05:05:02;;;;;;;21.77;16.23;;;9.10;95.30;;;;;;5352104;26;20015;-81
2024/04/19 05:07:28;;;;;;;25.73;17.00;;;9.10;95.30;;;;;;5364960;26;20126;-80
2024/04/19 05:09:55;;;;;;;21.95;15.38;;;9.10;95.20;;;;;;5357147;26;19993;-79
2024/04/19 05:12:21;;;;;;;21.10;14.25;;;9.10;95.20;;;;;;5363747;26;20019;-80
2024/04/19 05:14:47;;;;;;;22.55;14.13;;;9.20;95.10;;;;;;5357134;26;20030;-80
2024/04/19 05:17:12;;;;;;;22.02;13.30;;;9.20;95.10;;;;;;5336742;26;20020;-82
2024/04/19 05:19:38;;;;;;;20.65;13.32;;;9.20;94.90;;;;;;5364908;26;20009;-80
2024/04/19 05:22:03;;;;;;;21.15;13.40;;;9.20;94.90;;;;;;5362202;26;20003;-81
2024/04/19 05:24:29;;;;;;;23.75;12.57;;;9.30;95.00;;;;;;5364069;26;20018;-81
2024/04/19 05:26:56;;;;;;;19.23;12.20;;;9.30;94.90;;;;;;5394783;26;20164;-81
2024/04/19 05:29:24;;;;;;;22.42;12.45;;;9.30;94.80;;;;;;5396571;26;19999;-80
2024/04/19 05:31:50;;;;;;;18.77;10.82;;;9.40;94.80;;;;;;5356489;26;20011;-81
2024/04/19 05:34:16;;;;;;;18.55;10.85;;;9.30;94.70;;;;;;5393490;26;20014;-80
2024/04/19 05:36:42;;;;;;;18.58;10.80;;;9.40;94.70;;;;;;5388289;26;20460;-80
2024/04/19 05:39:07;;;;;;;14.50;10.23;;;9.40;94.60;;;;;;5382869;26;20019;-79
2024/04/19 05:41:33;;;;;;;18.63;10.23;;;9.40;94.60;;;;;;5382925;26;20008;-79
2024/04/19 05:43:58;;;;;;;19.02;11.25;;;9.40;94.60;;;;;;5394273;26;20460;-80
2024/04/19 05:46:25;;;;;;;17.85;10.77;;;9.40;94.40;;;;;;5389899;26;20004;-80
2024/04/19 05:48:50;;;;;;;18.80;11.05;;;9.50;94.50;;;;;;5394800;26;19999;-80
2024/04/19 05:51:16;;;;;;;14.98;10.60;;;9.50;94.50;;;;;;5396690;26;20039;-80
2024/04/19 05:53:42;;;;;;;18.27;10.73;;;9.50;94.50;;;;;;5390943;26;20455;-80
2024/04/19 05:56:09;;;;;;;18.23;9.98;;;9.50;94.50;;;;;;5359540;26;20008;-81
2024/04/19 05:58:34;;;;;;;19.48;10.35;;;9.50;94.50;;;;;;5407253;26;20007;-80
2024/04/19 06:01:00;;;;;;;16.60;11.05;;;9.50;94.50;;;;;;5386744;26;20068;-78
2024/04/19 06:03:25;;;;;;;19.30;11.02;;;9.50;94.50;;;;;;5393813;26;19996;-78
2024/04/19 06:05:51;;;;;;;20.88;10.93;;;9.60;94.60;;;;;;5383455;26;19995;-81
2024/04/19 06:08:17;;;;;;;21.73;11.63;;;9.60;94.60;;;;;;5385555;26;20003;-80
2024/04/19 06:10:42;;;;;;;22.60;11.98;;;9.60;94.50;;;;;;5401767;26;20007;-79
2024/04/19 06:13:08;;;;;;;20.20;11.02;;;9.60;94.50;;;;;;5396998;26;20305;-78
2024/04/19 06:15:33;;;;;;;19.42;12.07;;;9.70;94.40;;;;;;5395108;26;20000;-79
2024/04/19 06:17:59;;;;;;;20.60;11.48;;;9.60;94.30;;;;;;5354450;26;20047;-78
2024/04/19 06:20:25;;;;;;;17.38;10.52;;;9.60;94.30;;;;;;5404167;26;20470;-80
2024/04/19 06:22:51;;;;;;;17.30;10.40;;;9.70;94.30;;;;;;5394894;26;20011;-79
2024/04/19 06:25:17;;;;;;;14.15;8.88;;;9.70;94.20;;;;;;5387115;26;19996;-78
2024/04/19 06:27:42;;;;;;;20.33;9.35;;;9.70;94.20;;;;;;5379863;26;20370;-79
2024/04/19 06:30:08;;;;;;;15.57;7.90;;;9.80;94.10;;;;;;5383088;26;20002;-79
2024/04/19 06:32:34;;;;;;;18.92;8.43;;;9.80;94.10;;;;;;5399473;26;20106;-79
2024/04/19 06:35:00;;;;;;;17.08;8.65;;;9.80;94.10;;;;;;5387333;26;20461;-80
2024/04/19 06:37:25;;;;;;;17.95;8.65;;;9.80;94.00;;;;;;5381583;26;20006;-80
2024/04/19 06:39:51;;;;;;;19.17;7.95;;;9.80;94.10;;;;;;5388132;26;20007;-80
2024/04/19 06:42:18;;;;;;;12.57;7.55;;;9.80;94.00;;;;;;5396530;26;20014;-78
2024/04/19 06:44:43;;;;;;;15.05;8.57;;;9.90;94.00;;;;;;5391819;26;20015;-80
2024/04/19 06:47:09;;;;;;;16.67;8.48;;;9.90;93.90;;;;;;5364875;26;20438;-79
2024/04/19 06:49:35;;;;;;;15.57;8.88;;;9.90;93.90;;;;;;5408651;26;20674;-82
2024/04/19 06:52:01;;;;;;;15.23;8.38;;;10.00;93.90;;;;;;5394620;26;20138;-78
2024/04/19 06:54:27;;;;;;;19.85;8.20;;;10.00;93.90;;;;;;5397190;26;19996;-79
2024/04/19 06:56:54;;;;;;;14.65;7.90;;;10.00;93.90;;;;;;5394670;26;20055;-78
2024/04/19 06:59:19;;;;;;;16.63;8.65;;;10.00;93.90;;;;;;5397993;26;19998;-77
2024/04/19 07:01:46;;;;;;;12.95;8.13;;;10.10;93.80;;;;;;5389544;26;20014;-79
2024/04/19 07:04:12;;;;;;;15.57;8.25;;;10.20;93.80;;;;;;5394005;26;20227;-81
2024/04/19 07:06:39;;;;;;;15.23;7.65;;;10.10;93.80;;;;;;5398451;26;20004;-79
2024/04/19 07:09:05;;;;;;;15.95;8.63;;;10.10;93.80;;;;;;5386196;26;20471;-79
2024/04/19 07:11:31;;;;;;;14.27;8.18;;;10.10;93.80;;;;;;5399378;26;19999;-80
2024/04/19 07:13:57;;;;;;;15.23;7.82;;;10.10;93.90;;;;;;5393855;26;20402;-78
2024/04/19 07:16:23;;;;;;;17.63;7.57;;;10.20;93.80;;;;;;5394189;26;19992;-78
2024/04/19 07:18:49;;;;;;;13.02;7.30;;;10.20;93.70;;;;;;5371279;26;20432;-80
2024/04/19 07:21:15;;;;;;;12.02;7.32;;;10.20;93.60;;;;;;5351148;26;20016;-78
2024/04/19 07:23:40;;;;;;;14.82;7.82;;;10.30;93.60;;;;;;5336611;26;20614;-80
2024/04/19 07:26:06;;;;;;;16.90;8.45;;;10.30;93.40;;;;;;5317466;26;20028;-78
2024/04/19 07:28:32;;;;;;;15.70;8.75;;;10.30;93.20;;;;;;5349623;26;20334;-79
2024/04/19 07:31:00;;;;;;;14.13;9.10;;;10.40;93.10;;;;;;5346216;26;20000;-79
2024/04/19 07:33:25;;;;;;;17.67;9.02;;;10.50;92.90;;;;;;5317881;26;20427;-79
2024/04/19 07:35:51;;;;;;;18.00;9.00;;;10.50;92.70;;;;;;5363131;26;20000;-79
2024/04/19 07:38:17;;;;;;;14.02;8.98;;;10.50;92.70;;;;;;5370991;26;20413;-80
2024/04/19 07:40:43;;;;;;;18.35;8.63;;;10.50;92.60;;;;;;5374972;26;20534;-78
2024/04/19 07:43:08;;;;;;;16.77;8.10;;;10.60;92.60;;;;;;5367895;26;20016;-79
2024/04/19 07:45:34;;;;;;;16.20;7.78;;;10.60;92.40;;;;;;5375352;26;20008;-80
2024/04/19 07:48:00;;;;;;;13.73;6.95;;;10.60;92.30;;;;;;5324345;26;20369;-78
2024/04/19 07:50:27;;;;;;;17.23;7.28;;;10.60;92.30;;;;;;5366919;26;19996;-77
2024/04/19 07:52:53;;;;;;;16.50;7.05;;;10.60;92.30;;;;;;5344494;26;20001;-78
2024/04/19 07:55:19;;;;;;;14.10;6.68;;;10.60;92.20;;;;;;5349869;26;20015;-78
2024/04/19 07:57:48;;;;;;;14.02;6.78;;;10.60;92.10;;;;;;5344223;26;20016;-77
2024/04/19 08:00:17;;;;;;;17.77;6.82;;;10.60;92.10;;;;;;5350508;26;20019;-78
2024/04/19 08:02:46;;;;;;;16.08;6.80;;;10.70;92.00;;;;;;5345796;26;20005;-76
2024/04/19 08:05:13;;;;;;;12.85;6.70;;;10.70;91.90;;;;;;5354117;26;20800;-77
2024/04/19 08:07:38;;;;;;;15.32;6.50;;;10.70;91.70;;;;;;5349720;26;20000;-76
2024/04/19 08:10:05;;;;;;;13.27;6.50;;;10.80;91.60;;;;;;5349458;26;20074;-79
2024/04/19 08:12:31;;;;;;;16.95;6.68;;;10.80;91.40;;;;;;5341630;26;19996;-77
2024/04/19 08:14:56;;;;;;;15.25;6.25;;;10.80;91.30;;;;;;5346131;26;20020;-78
2024/04/19 08:17:22;;;;;;;11.65;5.30;;;10.90;91.10;;;;;;5317309;26;20023;-78
2024/04/19 08:19:49;;;;;;;13.52;5.82;;;10.90;90.80;;;;;;5366388;26;19999;-77
2024/04/19 08:22:15;;;;;;;11.20;5.00;;;10.90;90.70;;;;;;5414894;26;20006;-78
2024/04/19 08:24:41;;;;;;;14.88;4.72;;;11.10;90.30;;;;;;5420553;26;20429;-78
2024/04/19 08:27:08;;;;;;;12.68;4.20;;;11.10;89.60;;;;;;5421186;26;20569;-79
2024/04/19 08:29:33;;;;;;;11.75;4.82;;;11.10;89.30;;;;;;5417993;26;20147;-77
2024/04/19 08:31:59;;;;;;;14.68;5.40;;;11.10;89.30;;;;;;5376928;26;20571;-78
2024/04/19 08:34:25;;;;;;;11.05;4.75;;;11.20;89.10;;;;;;5411277;26;20091;-78
2024/04/19 08:36:51;;;;;;;11.15;4.95;;;11.30;89.10;;;;;;5420702;26;20120;-78
2024/04/19 08:39:16;;;;;;;13.02;5.10;;;11.30;89.00;;;;;;5419460;26;20388;-77
2024/04/19 08:41:47;;;;;;;11.73;5.07;;;11.40;89.00;;;;;;5420810;26;20299;-79
2024/04/19 08:44:13;;;;;;;16.73;5.78;;;11.30;88.50;;;;;;5422599;26;20014;-78
2024/04/19 08:46:40;;;;;;;15.40;6.30;;;11.30;88.70;;;;;;5419465;26;20007;-79
2024/04/19 08:49:08;;;;;;;16.50;5.72;;;11.20;88.70;;;;;;5412212;26;20111;-78
2024/04/19 08:51:38;;;;;;;15.13;6.20;;;11.20;89.10;;;;;;5380096;26;20499;-77
2024/04/19 08:54:04;;;;;;;14.02;4.97;;;11.30;89.20;;;;;;5425483;26;20007;-78
2024/04/19 08:56:31;;;;;;;10.75;5.18;;;11.30;89.30;;;;;;5421413;26;20010;-78
2024/04/19 08:58:57;;;;;;;14.02;5.20;;;11.30;89.20;;;;;;5386857;26;20063;-77
2024/04/19 09:01:23;;;;;;;15.20;4.60;;;11.30;89.10;;;;;;5420287;26;20006;-78
2024/04/19 09:03:49;;;;;;;8.82;4.25;;;11.20;88.80;;;;;;5423238;26;20010;-78
2024/04/19 09:06:14;;;;;;;11.82;4.20;;;11.30;88.70;;;;;;5431746;26;20003;-77
2024/04/19 09:08:41;;;;;;;11.35;4.13;;;11.30;88.60;;;;;;5398962;26;20007;-77
2024/04/19 09:11:15;;;;;;;9.27;3.17;;;11.10;89.10;;;;;;5417053;26;20000;-78
2024/04/19 09:13:42;;;;;;;11.65;3.63;;;11.00;89.10;;;;;;5419741;26;19998;-76
2024/04/19 09:16:11;;;;;;;11.65;3.38;;;10.90;89.70;;;;;;5395367;26;20454;-76
2024/04/19 09:18:37;;;;;;;12.38;4.78;;;10.80;90.30;;;;;;5415812;26;20014;-77
2024/04/19 09:21:03;;;;;;;8.15;3.63;;;10.80;90.90;;;;;;5420203;26;20432;-77
2024/04/19 09:23:29;;;;;;;7.72;3.45;;;10.80;91.00;;;;;;5425132;26;20007;-76
2024/04/19 09:25:56;;;;;;;10.45;3.83;;;10.50;90.50;;;;;;5413418;26;20035;-78
2024/04/19 09:28:25;;;;;;;8.30;2.97;;;10.50;91.00;;;;;;5424940;26;20010;-77
2024/04/19 09:30:54;;;;;;;13.40;3.38;;;10.40;91.10;;;;;;5415041;26;20061;-78
2024/04/19 09:33:21;;;;;;;10.00;3.10;;;10.30;91.50;;;;;;5408616;26;20522;-78
2024/04/19 09:35:49;;;;;;;7.40;2.80;;;10.40;91.60;;;;;;5415458;26;20009;-79
2024/04/19 09:38:15;;;;;;;9.30;2.78;;;10.40;91.70;;;;;;5415059;26;21245;-79
2024/04/19 09:40:45;;;;;;;7.88;3.05;;;10.30;91.40;;;;;;5421808;26;20003;-78
2024/04/19 09:43:14;;;;;;;9.73;3.45;;;10.30;91.70;;;;;;5413796;26;20013;-79
2024/04/19 09:45:43;;;;;;;7.72;2.90;;;10.40;91.50;;;;;;5421076;26;20762;-78
2024/04/19 09:48:10;;;;;;;10.68;3.30;;;10.30;91.50;;;;;;5410220;26;20052;-78
2024/04/19 09:50:39;;;;;;;11.35;3.63;;;10.30;91.50;;;;;;5419142;26;20071;-79
2024/04/19 09:53:10;;;;;;;8.32;3.10;;;10.30;91.50;;;;;;5417873;26;19991;-78
2024/04/19 09:55:45;;;;;;;10.18;3.67;;;10.30;91.50;;;;;;5417736;26;20566;-77
2024/04/19 09:58:12;;;;;;;10.20;3.70;;;10.20;91.40;;;;;;5418151;26;20446;-77
2024/04/19 10:00:38;;;;;;;14.18;3.47;;;10.20;91.40;;;;;;5399068;26;20030;-79
2024/04/19 10:03:08;;;;;;;7.22;2.75;;;10.50;91.60;;;;;;5403503;26;20006;-80
2024/04/19 10:05:35;;;;;;;10.50;3.42;;;10.60;91.60;;;;;;5402184;26;20000;-79
2024/04/19 10:08:03;;;;;;;9.25;2.72;;;10.60;91.40;;;;;;5412835;26;21265;-80
2024/04/19 10:10:28;;;;;;;10.65;3.22;;;10.60;91.30;;;;;;5417520;26;20004;-79
2024/04/19 10:12:54;;;;;;;7.82;3.35;;;10.60;91.10;;;;;;5410746;26;20010;-79
2024/04/19 10:15:21;;;;;;;9.90;3.08;;;10.60;91.10;;;;;;5424199;26;20488;-80
2024/04/19 10:17:47;;;;;;;9.30;3.85;;;10.80;91.10;;;;;;5423743;26;20006;-79
2024/04/19 10:20:13;;;;;;;8.07;3.75;;;10.90;90.90;;;;;;5415028;26;20451;-80
2024/04/19 10:22:42;;;;;;;9.77;4.22;;;11.20;90.80;;;;;;5409935;26;19995;-79
2024/04/19 10:25:07;;;;;;;10.10;4.05;;;11.50;90.70;;;;;;5399560;26;20006;-78
2024/04/19 10:27:33;;;;;;;11.90;3.63;;;11.80;89.50;;;;;;5412745;26;20583;-79
2024/04/19 10:30:03;;;;;;;10.68;4.10;;;12.10;89.00;;;;;;5387683;26;21424;-81
2024/04/19 10:32:29;;;;;;;10.25;4.18;;;11.90;87.80;;;;;;5407323;26;20564;-80
2024/04/19 10:34:54;;;;;;;9.32;4.03;;;12.10;88.30;;;;;;5417392;26;19995;-80
2024/04/19 10:37:20;;;;;;;15.73;4.13;;;11.90;87.50;;;;;;5398718;26;20014;-81
2024/04/19 10:39:47;;;;;;;9.85;3.58;;;12.10;87.70;;;;;;5418967;26;20936;-80
2024/04/19 10:42:12;;;;;;;12.65;3.85;;;12.10;87.20;;;;;;5415708;26;19995;-79
2024/04/19 10:44:41;;;;;;;12.27;4.15;;;12.10;86.90;;;;;;5417304;26;20009;-79
2024/04/19 10:47:08;;;;;;;10.25;4.70;;;12.40;86.90;;;;;;5413052;26;20586;-79
2024/04/19 10:49:34;;;;;;;14.75;5.35;;;12.60;86.70;;;;;;5414201;26;20008;-79
2024/04/19 10:51:59;;;;;;;10.95;4.20;;;12.80;85.70;;;;;;5381812;26;19994;-80
2024/04/19 10:54:25;;;;;;;10.73;4.05;;;12.80;83.90;;;;;;5420958;26;20344;-78
2024/04/19 10:56:52;;;;;;;11.07;3.95;;;12.80;82.70;;;;;;5410027;26;20040;-79
2024/04/19 10:59:17;;;;;;;10.70;3.47;;;12.80;82.60;;;;;;5421281;26;19999;-79
2024/04/19 11:01:45;;;;;;;10.60;3.63;;;12.90;82.20;;;;;;5417963;26;20011;-79
2024/04/19 11:04:12;;;;;;;13.88;4.05;;;12.90;81.40;;;;;;5416990;26;19999;-79
2024/04/19 11:06:39;;;;;;;12.75;4.03;;;12.70;81.90;;;;;;5396277;26;19994;-79
2024/04/19 11:09:05;;;;;;;13.25;4.20;;;12.60;82.40;;;;;;5395245;26;20357;-78
2024/04/19 11:11:37;;;;;;;8.90;3.38;;;12.20;84.00;;;;;;5418004;26;20002;-78
2024/04/19 11:14:07;;;;;;;7.57;2.58;;;11.90;84.80;;;;;;5414761;26;20027;-81
2024/04/19 11:16:33;;;;;;;8.38;2.20;;;11.70;83.50;;;;;;5395883;26;20000;-79
2024/04/19 11:18:58;;;;;;;5.57;2.28;;;11.60;83.90;;;;;;5422845;26;20428;-78
2024/04/19 11:21:24;;;;;;;9.65;2.17;;;11.70;83.50;;;;;;5410735;26;20009;-80
2024/04/19 11:23:50;;;;;;;8.68;2.20;;;11.70;84.00;;;;;;5396389;26;20546;-80
2024/04/19 11:26:19;;;;;;;6.80;2.20;;;11.50;82.20;;;;;;5414204;26;20490;-80
2024/04/19 11:28:48;;;;;;;4.88;1.88;;;11.60;83.50;;;;;;5401760;26;20292;-80
2024/04/19 11:31:17;;;;;;;8.73;2.60;;;11.70;84.00;;;;;;5418278;26;20197;-79
2024/04/19 11:33:43;;;;;;;7.75;3.65;;;12.00;84.10;;;;;;5418813;26;20019;-81
2024/04/19 11:36:09;;;;;;;7.97;2.65;;;12.10;82.90;;;;;;5384578;26;20010;-80
2024/04/19 11:38:35;;;;;;;6.97;3.22;;;12.40;82.90;;;;;;5412234;26;19999;-79
2024/04/19 11:41:01;;;;;;;7.43;2.30;;;12.60;81.80;;;;;;5400535;26;20048;-80
2024/04/19 11:43:27;;;;;;;8.13;2.72;;;12.60;80.50;;;;;;5430492;26;20534;-79
2024/04/19 11:45:53;;;;;;;10.93;2.38;;;12.60;81.30;;;;;;5403266;26;20014;-81
2024/04/19 11:48:25;;;;;;;8.27;2.58;;;12.70;81.50;;;;;;5426893;26;19995;-81
2024/04/19 11:50:53;;;;;;;8.10;2.30;;;12.60;80.60;;;;;;5404619;26;19998;-80
2024/04/19 11:53:19;;;;;;;10.93;2.22;;;12.80;80.00;;;;;;5407924;26;20017;-82
2024/04/19 11:55:47;;;;;;;9.27;1.90;;;12.80;78.50;;;;;;5425878;26;20455;-81
2024/04/19 11:58:14;;;;;;;7.85;2.10;;;12.70;77.30;;;;;;5394590;26;20136;-82
2024/04/19 12:00:39;;;;;;;8.38;4.32;;;12.60;76.40;;;;;;5435244;26;20082;-80
2024/04/19 12:03:05;;;;;;;6.63;2.25;;;12.40;76.20;;;;;;5439167;26;20534;-82
2024/04/19 12:05:31;;;;;;;6.72;1.85;;;12.40;77.50;;;;;;5425589;26;20421;-81
2024/04/19 12:07:57;;;;;;;10.02;2.05;;;12.50;77.10;;;;;;5429651;26;20049;-81
2024/04/19 12:10:23;;;;;;;7.95;2.30;;;12.60;76.80;;;;;;5382690;26;20006;-80
2024/04/19 12:12:49;;;;;;;8.65;2.50;;;12.60;77.40;;;;;;5430646;26;20297;-82
2024/04/19 12:15:15;;;;;;;9.88;2.35;;;12.50;77.90;;;;;;5412138;26;20010;-81
2024/04/19 12:17:40;;;;;;;11.40;3.20;;;12.10;80.20;;;;;;5420195;26;20047;-80
2024/04/19 12:20:06;;;;;;;6.63;1.73;;;11.90;82.80;;;;;;5430131;26;20021;-80
2024/04/19 12:22:32;;;;;;;6.57;2.47;;;11.70;82.60;;;;;;5433035;26;20436;-80
2024/04/19 12:24:58;;;;;;;6.60;2.03;;;11.40;82.00;;;;;;5391707;26;20003;-78
2024/04/19 12:27:24;;;;;;;5.68;1.63;;;11.30;82.20;;;;;;5429859;26;20006;-79
2024/04/19 12:29:50;;;;;;;6.10;2.25;;;11.50;82.90;;;;;;5390758;26;19999;-80
2024/04/19 12:32:17;;;;;;;6.90;2.65;;;11.40;83.40;;;;;;5423634;26;19999;-79
2024/04/19 12:34:44;;;;;;;9.68;2.75;;;11.50;84.20;;;;;;5435261;26;20011;-79
2024/04/19 12:37:10;;;;;;;12.57;3.00;;;11.50;83.60;;;;;;5432817;26;20003;-80
2024/04/19 12:39:36;;;;;;;10.50;2.75;;;11.50;83.40;;;;;;5432011;26;20149;-79
2024/04/19 12:42:05;;;;;;;7.43;2.40;;;11.40;84.70;;;;;;5418815;26;20006;-80
2024/04/19 12:44:31;;;;;;;8.60;1.90;;;11.40;84.60;;;;;;5414108;26;20001;-78